sensor_id;sensor_type;location;lat;lon;timestamp;pressure;altitude;pressure_sealevel;temperature;humidity
55914;BME280;58179;48.776;9.124;2022-11-23T00:00:05;96042.03;;;1.85;100.00
55914;BME280;58179;48.776;9.124;2022-11-23T00:02:34;96044.97;;;1.89;100.00
55914;BME280;58179;48.776;9.124;2022-11-23T00:04:59;96040.78;;;1.88;100.00
55914;BME280;58179;48.776;9.124;2022-11-23T00:07:27;96035.22;;;1.84;100.00
55914;BME280;58179;48.776;9.124;2022-11-23T00:09:52;96041.22;;;1.85;100.00
55914;BME280;58179;48.776;9.124;2022-11-23T00:12:18;96032.50;;;1.79;100.00
55914;BME280;58179;48.776;9.124;2022-11-23T00:14:44;96038.06;;;1.83;100.00
55914;BME280;58179;48.776;9.124;2022-11-23T00:17:10;96042.94;;;1.79;100.00
55914;BME280;58179;48.776;9.124;2022-11-23T00:19:36;96037.16;;;1.77;100.00
55914;BME280;58179;48.776;9.124;2022-11-23T00:22:02;96039.31;;;1.80;100.00
55914;BME280;58179;48.776;9.124;2022-11-23T00:24:29;96032.97;;;1.76;100.00
55914;BME280;58179;48.776;9.124;2022-11-23T00:26:55;96032.75;;;1.78;100.00
55914;BME280;58179;48.776;9.124;2022-11-23T00:29:21;96038.53;;;1.80;100.00
55914;BME280;58179;48.776;9.124;2022-11-23T00:31:47;96038.53;;;1.80;100.00
55914;BME280;58179;48.776;9.124;2022-11-23T00:34:12;96034.78;;;1.76;100.00
55914;BME280;58179;48.776;9.124;2022-11-23T00:36:40;96042.03;;;1.74;100.00
55914;BME280;58179;48.776;9.124;2022-11-23T00:39:06;96045.78;;;1.78;100.00
55914;BME280;58179;48.776;9.124;2022-11-23T00:41:33;96042.47;;;1.82;100.00
55914;BME280;58179;48.776;9.124;2022-11-23T00:43:59;96041.22;;;1.85;100.00
55914;BME280;58179;48.776;9.124;2022-11-23T00:46:26;96041.69;;;1.93;100.00
55914;BME280;58179;48.776;9.124;2022-11-23T00:48:54;96037.34;;;1.99;100.00
55914;BME280;58179;48.776;9.124;2022-11-23T00:51:22;96037.44;;;2.04;100.00
55914;BME280;58179;48.776;9.124;2022-11-23T00:53:49;96036.44;;;2.05;100.00
55914;BME280;58179;48.776;9.124;2022-11-23T00:56:16;96040.19;;;2.09;100.00
55914;BME280;58179;48.776;9.124;2022-11-23T00:58:48;96037.78;;;2.08;100.00
55914;BME280;58179;48.776;9.124;2022-11-23T01:01:15;96036.78;;;2.09;100.00
55914;BME280;58179;48.776;9.124;2022-11-23T01:03:44;96047.75;;;2.11;100.00
55914;BME280;58179;48.776;9.124;2022-11-23T01:06:13;96045.41;;;2.09;100.00
55914;BME280;58179;48.776;9.124;2022-11-23T01:08:40;96039.16;;;2.10;100.00
55914;BME280;58179;48.776;9.124;2022-11-23T01:11:08;96043.00;;;2.08;100.00
55914;BME280;58179;48.776;9.124;2022-11-23T01:13:36;96038.47;;;2.03;100.00
55914;BME280;58179;48.776;9.124;2022-11-23T01:16:03;96037.94;;;2.01;100.00
55914;BME280;58179;48.776;9.124;2022-11-23T01:18:29;96038.72;;;2.02;100.00
55914;BME280;58179;48.776;9.124;2022-11-23T01:20:55;96038.59;;;1.97;100.00
55914;BME280;58179;48.776;9.124;2022-11-23T01:23:21;96042.13;;;1.90;100.00
55914;BME280;58179;48.776;9.124;2022-11-23T01:25:47;96042.69;;;1.92;100.00
55914;BME280;58179;48.776;9.124;2022-11-23T01:28:13;96037.72;;;1.91;100.00
55914;BME280;58179;48.776;9.124;2022-11-23T01:30:39;96047.56;;;1.89;100.00
55914;BME280;58179;48.776;9.124;2022-11-23T01:33:07;96036.59;;;1.87;100.00
55914;BME280;58179;48.776;9.124;2022-11-23T01:35:33;96034.88;;;1.92;100.00
55914;BME280;58179;48.776;9.124;2022-11-23T01:37:58;96032.25;;;1.92;100.00
55914;BME280;58179;48.776;9.124;2022-11-23T01:40:24;96039.16;;;1.99;100.00
55914;BME280;58179;48.776;9.124;2022-11-23T01:42:53;96043.59;;;1.98;100.00
55914;BME280;58179;48.776;9.124;2022-11-23T01:45:37;96046.41;;;1.97;100.00
55914;BME280;58179;48.776;9.124;2022-11-23T01:48:12;96046.41;;;1.97;100.00
55914;BME280;58179;48.776;9.124;2022-11-23T01:50:40;96045.09;;;1.94;100.00
55914;BME280;58179;48.776;9.124;2022-11-23T01:53:07;96052.13;;;1.93;100.00
55914;BME280;58179;48.776;9.124;2022-11-23T01:55:34;96050.19;;;1.89;100.00
55914;BME280;58179;48.776;9.124;2022-11-23T01:58:01;96049.84;;;1.85;100.00
55914;BME280;58179;48.776;9.124;2022-11-23T02:00:28;96051.66;;;1.85;100.00
55914;BME280;58179;48.776;9.124;2022-11-23T02:02:57;96054.50;;;1.83;100.00
55914;BME280;58179;48.776;9.124;2022-11-23T02:05:31;96057.69;;;1.85;100.00
55914;BME280;58179;48.776;9.124;2022-11-23T02:07:59;96050.09;;;1.84;100.00
55914;BME280;58179;48.776;9.124;2022-11-23T02:10:26;96059.72;;;1.83;100.00
55914;BME280;58179;48.776;9.124;2022-11-23T02:12:53;96058.59;;;1.79;100.00
55914;BME280;58179;48.776;9.124;2022-11-23T02:15:20;96060.41;;;1.79;100.00
55914;BME280;58179;48.776;9.124;2022-11-23T02:17:46;96063.16;;;1.72;100.00
55914;BME280;58179;48.776;9.124;2022-11-23T02:20:14;96068.00;;;1.69;100.00
55914;BME280;58179;48.776;9.124;2022-11-23T02:22:53;96062.91;;;1.62;100.00
55914;BME280;58179;48.776;9.124;2022-11-23T02:25:31;96056.78;;;1.57;100.00
55914;BME280;58179;48.776;9.124;2022-11-23T02:28:01;96061.44;;;1.54;100.00
55914;BME280;58179;48.776;9.124;2022-11-23T02:30:28;96067.09;;;1.51;100.00
55914;BME280;58179;48.776;9.124;2022-11-23T02:32:55;96058.25;;;1.52;100.00
55914;BME280;58179;48.776;9.124;2022-11-23T02:35:22;96060.84;;;1.52;100.00
55914;BME280;58179;48.776;9.124;2022-11-23T02:37:48;96059.84;;;1.53;100.00
55914;BME280;58179;48.776;9.124;2022-11-23T02:40:24;96065.28;;;1.52;100.00
55914;BME280;58179;48.776;9.124;2022-11-23T02:42:50;96066.53;;;1.49;100.00
55914;BME280;58179;48.776;9.124;2022-11-23T02:45:26;96073.00;;;1.47;100.00
55914;BME280;58179;48.776;9.124;2022-11-23T02:47:53;96071.19;;;1.47;100.00
55914;BME280;58179;48.776;9.124;2022-11-23T02:50:20;96066.75;;;1.48;100.00
55914;BME280;58179;48.776;9.124;2022-11-23T02:52:46;96063.56;;;1.46;100.00
55914;BME280;58179;48.776;9.124;2022-11-23T02:55:11;96060.19;;;1.45;100.00
55914;BME280;58179;48.776;9.124;2022-11-23T02:57:37;96065.97;;;1.47;100.00
55914;BME280;58179;48.776;9.124;2022-11-23T03:00:05;96065.97;;;1.47;100.00
55914;BME280;58179;48.776;9.124;2022-11-23T03:02:32;96063.56;;;1.46;100.00
55914;BME280;58179;48.776;9.124;2022-11-23T03:04:58;96063.34;;;1.47;100.00
55914;BME280;58179;48.776;9.124;2022-11-23T03:07:24;96066.75;;;1.48;100.00
55914;BME280;58179;48.776;9.124;2022-11-23T03:09:50;96068.34;;;1.49;100.00
55914;BME280;58179;48.776;9.124;2022-11-23T03:12:16;96078.53;;;1.50;100.00
55914;BME280;58179;48.776;9.124;2022-11-23T03:14:42;96078.53;;;1.50;100.00
55914;BME280;58179;48.776;9.124;2022-11-23T03:17:08;96074.13;;;1.51;100.00
55914;BME280;58179;48.776;9.124;2022-11-23T03:19:35;96068.09;;;1.50;100.00
55914;BME280;58179;48.776;9.124;2022-11-23T03:22:01;96064.72;;;1.50;100.00
55914;BME280;58179;48.776;9.124;2022-11-23T03:24:27;96066.53;;;1.49;100.00
55914;BME280;58179;48.776;9.124;2022-11-23T03:26:53;96062.44;;;1.53;100.00
55914;BME280;58179;48.776;9.124;2022-11-23T03:29:19;96072.09;;;1.53;100.00
55914;BME280;58179;48.776;9.124;2022-11-23T03:31:45;96069.47;;;1.53;100.00
55914;BME280;58179;48.776;9.124;2022-11-23T03:34:11;96068.34;;;1.49;100.00
55914;BME280;58179;48.776;9.124;2022-11-23T03:36:38;96071.41;;;1.46;100.00
55914;BME280;58179;48.776;9.124;2022-11-23T03:39:04;96067.56;;;1.48;100.00
55914;BME280;58179;48.776;9.124;2022-11-23T03:41:30;96060.06;;;1.52;100.00
55914;BME280;58179;48.776;9.124;2022-11-23T03:43:56;96060.53;;;1.61;100.00
55914;BME280;58179;48.776;9.124;2022-11-23T03:46:22;96065.63;;;1.67;100.00
55914;BME280;58179;48.776;9.124;2022-11-23T03:48:48;96065.84;;;1.77;100.00
55914;BME280;58179;48.776;9.124;2022-11-23T03:51:14;96061.97;;;1.91;100.00
55914;BME280;58179;48.776;9.124;2022-11-23T03:53:41;96054.25;;;1.97;100.00
55914;BME280;58179;48.776;9.124;2022-11-23T03:56:07;96058.22;;;1.99;100.00
55914;BME280;58179;48.776;9.124;2022-11-23T03:58:33;96053.38;;;2.03;100.00
55914;BME280;58179;48.776;9.124;2022-11-23T04:00:59;96050.84;;;2.08;100.00
55914;BME280;58179;48.776;9.124;2022-11-23T04:03:25;96050.38;;;2.11;100.00
55914;BME280;58179;48.776;9.124;2022-11-23T04:05:51;96052.31;;;2.15;100.00
55914;BME280;58179;48.776;9.124;2022-11-23T04:08:17;96050.16;;;2.12;100.00
55914;BME280;58179;48.776;9.124;2022-11-23T04:10:44;96051.28;;;2.05;100.00
55914;BME280;58179;48.776;9.124;2022-11-23T04:13:10;96044.16;;;2.00;100.00
55914;BME280;58179;48.776;9.124;2022-11-23T04:15:36;96048.50;;;1.94;100.00
55914;BME280;58179;48.776;9.124;2022-11-23T04:18:02;96043.94;;;1.90;100.00
55914;BME280;58179;48.776;9.124;2022-11-23T04:20:28;96039.41;;;1.85;100.00
55914;BME280;58179;48.776;9.124;2022-11-23T04:22:54;96042.38;;;1.77;100.00
55914;BME280;58179;48.776;9.124;2022-11-23T04:25:20;96043.28;;;1.71;100.00
55914;BME280;58179;48.776;9.124;2022-11-23T04:27:47;96057.94;;;1.72;100.00
55914;BME280;58179;48.776;9.124;2022-11-23T04:30:14;96042.94;;;1.68;100.00
55914;BME280;58179;48.776;9.124;2022-11-23T04:32:40;96040.00;;;1.64;100.00
55914;BME280;58179;48.776;9.124;2022-11-23T04:35:08;96039.22;;;1.64;100.00
55914;BME280;58179;48.776;9.124;2022-11-23T04:37:34;96044.22;;;1.65;100.00
55914;BME280;58179;48.776;9.124;2022-11-23T04:40:00;96048.16;;;1.68;100.00
55914;BME280;58179;48.776;9.124;2022-11-23T04:42:26;96039.88;;;1.71;100.00
55914;BME280;58179;48.776;9.124;2022-11-23T04:44:54;96043.06;;;1.73;100.00
55914;BME280;58179;48.776;9.124;2022-11-23T04:47:22;96048.84;;;1.75;100.00
55914;BME280;58179;48.776;9.124;2022-11-23T04:49:48;96041.13;;;1.80;100.00
55914;BME280;58179;48.776;9.124;2022-11-23T04:52:14;96037.03;;;1.84;100.00
55914;BME280;58179;48.776;9.124;2022-11-23T04:54:40;96028.28;;;1.90;100.00
55914;BME280;58179;48.776;9.124;2022-11-23T04:57:06;96030.78;;;1.97;100.00
55914;BME280;58179;48.776;9.124;2022-11-23T04:59:31;96034.84;;;2.04;100.00
55914;BME280;58179;48.776;9.124;2022-11-23T05:01:59;96033.81;;;2.05;100.00
55914;BME280;58179;48.776;9.124;2022-11-23T05:04:24;96035.19;;;2.08;100.00
55914;BME280;58179;48.776;9.124;2022-11-23T05:06:50;96041.19;;;2.08;100.00
55914;BME280;58179;48.776;9.124;2022-11-23T05:09:16;96040.28;;;2.14;100.00
55914;BME280;58179;48.776;9.124;2022-11-23T05:11:42;96039.69;;;2.12;100.00
55914;BME280;58179;48.776;9.124;2022-11-23T05:14:08;96042.88;;;2.14;100.00
55914;BME280;58179;48.776;9.124;2022-11-23T05:16:35;96042.31;;;2.12;100.00
55914;BME280;58179;48.776;9.124;2022-11-23T05:19:02;96044.47;;;2.15;100.00
55914;BME280;58179;48.776;9.124;2022-11-23T05:21:28;96037.53;;;2.21;100.00
55914;BME280;58179;48.776;9.124;2022-11-23T05:23:54;96034.78;;;2.27;100.00
55914;BME280;58179;48.776;9.124;2022-11-23T05:26:20;96029.25;;;2.24;100.00
55914;BME280;58179;48.776;9.124;2022-11-23T05:28:46;96037.88;;;2.24;100.00
55914;BME280;58179;48.776;9.124;2022-11-23T05:31:12;96034.91;;;2.21;100.00
55914;BME280;58179;48.776;9.124;2022-11-23T05:33:38;96037.31;;;2.22;100.00
55914;BME280;58179;48.776;9.124;2022-11-23T05:36:06;96032.88;;;2.23;100.00
55914;BME280;58179;48.776;9.124;2022-11-23T05:38:32;96039.47;;;2.25;100.00
55914;BME280;58179;48.776;9.124;2022-11-23T05:40:58;96034.25;;;2.25;100.00
55914;BME280;58179;48.776;9.124;2022-11-23T05:43:24;96047.28;;;2.25;100.00
55914;BME280;58179;48.776;9.124;2022-11-23T05:45:50;96031.50;;;2.32;100.00
55914;BME280;58179;48.776;9.124;2022-11-23T05:48:16;96042.03;;;2.37;100.00
55914;BME280;58179;48.776;9.124;2022-11-23T05:50:42;96034.63;;;2.46;100.00
55914;BME280;58179;48.776;9.124;2022-11-23T05:53:09;96032.09;;;2.51;100.00
55914;BME280;58179;48.776;9.124;2022-11-23T05:55:35;96031.78;;;2.47;100.00
55914;BME280;58179;48.776;9.124;2022-11-23T05:58:01;96035.59;;;2.56;100.00
55914;BME280;58179;48.776;9.124;2022-11-23T06:00:28;96034.41;;;2.64;100.00
55914;BME280;58179;48.776;9.124;2022-11-23T06:02:59;96032.59;;;2.64;100.00
55914;BME280;58179;48.776;9.124;2022-11-23T06:05:25;96033.25;;;2.71;100.00
55914;BME280;58179;48.776;9.124;2022-11-23T06:13:04;96023.44;;;2.62;100.00
55914;BME280;58179;48.776;9.124;2022-11-23T06:15:30;96032.75;;;2.58;100.00
55914;BME280;58179;48.776;9.124;2022-11-23T06:17:58;96032.91;;;2.51;100.00
55914;BME280;58179;48.776;9.124;2022-11-23T06:20:25;96030.19;;;2.46;100.00
55914;BME280;58179;48.776;9.124;2022-11-23T06:22:51;96031.91;;;2.41;100.00
55914;BME280;58179;48.776;9.124;2022-11-23T06:25:17;96035.69;;;2.33;100.00
55914;BME280;58179;48.776;9.124;2022-11-23T06:27:52;96042.84;;;2.26;100.00
55914;BME280;58179;48.776;9.124;2022-11-23T06:30:20;96040.13;;;2.21;100.00
55914;BME280;58179;48.776;9.124;2022-11-23T06:32:46;96033.56;;;2.18;100.00
55914;BME280;58179;48.776;9.124;2022-11-23T06:35:11;96035.06;;;2.14;100.00
55914;BME280;58179;48.776;9.124;2022-11-23T06:37:37;96037.56;;;2.09;100.00
55914;BME280;58179;48.776;9.124;2022-11-23T06:40:04;96035.09;;;2.03;100.00
55914;BME280;58179;48.776;9.124;2022-11-23T06:42:30;96039.16;;;1.99;100.00
55914;BME280;58179;48.776;9.124;2022-11-23T06:44:56;96037.81;;;1.96;100.00
55914;BME280;58179;48.776;9.124;2022-11-23T06:47:23;96040.97;;;1.98;100.00
55914;BME280;58179;48.776;9.124;2022-11-23T06:49:49;96040.97;;;1.98;100.00
55914;BME280;58179;48.776;9.124;2022-11-23T06:52:15;96039.16;;;1.99;100.00
55914;BME280;58179;48.776;9.124;2022-11-23T06:54:41;96041.47;;;1.95;100.00
55914;BME280;58179;48.776;9.124;2022-11-23T06:57:07;96038.28;;;1.93;100.00
55914;BME280;58179;48.776;9.124;2022-11-23T06:59:33;96045.75;;;1.89;100.00
55914;BME280;58179;48.776;9.124;2022-11-23T07:01:59;96048.94;;;1.91;100.00
55914;BME280;58179;48.776;9.124;2022-11-23T07:04:26;96052.47;;;1.85;100.00
55914;BME280;58179;48.776;9.124;2022-11-23T07:06:52;96049.75;;;1.80;100.00
55914;BME280;58179;48.776;9.124;2022-11-23T07:09:18;96055.53;;;1.82;100.00
55914;BME280;58179;48.776;9.124;2022-11-23T07:11:44;96054.28;;;1.85;100.00
55914;BME280;58179;48.776;9.124;2022-11-23T07:14:10;96059.16;;;1.81;100.00
55914;BME280;58179;48.776;9.124;2022-11-23T07:16:36;96057.34;;;1.82;100.00
55914;BME280;58179;48.776;9.124;2022-11-23T07:19:02;96054.50;;;1.83;100.00
55914;BME280;58179;48.776;9.124;2022-11-23T07:21:29;96058.13;;;1.82;100.00
55914;BME280;58179;48.776;9.124;2022-11-23T07:23:55;96062.81;;;1.80;100.00
55914;BME280;58179;48.776;9.124;2022-11-23T07:26:21;96062.81;;;1.80;100.00
55914;BME280;58179;48.776;9.124;2022-11-23T07:28:47;96062.44;;;1.77;100.00
55914;BME280;58179;48.776;9.124;2022-11-23T07:31:13;96060.84;;;1.76;100.00
55914;BME280;58179;48.776;9.124;2022-11-23T07:33:43;96061.34;;;1.73;100.00
55914;BME280;58179;48.776;9.124;2022-11-23T07:36:09;96059.16;;;1.70;100.00
55914;BME280;58179;48.776;9.124;2022-11-23T07:38:36;96064.16;;;1.71;100.00
55914;BME280;58179;48.776;9.124;2022-11-23T07:41:02;96062.66;;;1.75;100.00
55914;BME280;58179;48.776;9.124;2022-11-23T07:43:28;96061.66;;;1.76;100.00
55914;BME280;58179;48.776;9.124;2022-11-23T07:45:54;96066.44;;;1.79;100.00
55914;BME280;58179;48.776;9.124;2022-11-23T07:48:21;96070.06;;;1.78;100.00
55914;BME280;58179;48.776;9.124;2022-11-23T07:50:50;96069.72;;;1.86;100.00
55914;BME280;58179;48.776;9.124;2022-11-23T07:53:16;96072.63;;;1.90;100.00
55914;BME280;58179;48.776;9.124;2022-11-23T07:55:44;96067.56;;;1.95;100.00
55914;BME280;58179;48.776;9.124;2022-11-23T07:58:10;96069.47;;;2.00;100.00
55914;BME280;58179;48.776;9.124;2022-11-23T08:00:36;96074.91;;;2.10;100.00
55914;BME280;58179;48.776;9.124;2022-11-23T08:03:02;96078.63;;;2.14;100.00
55914;BME280;58179;48.776;9.124;2022-11-23T08:05:30;96077.94;;;2.18;100.00
55914;BME280;58179;48.776;9.124;2022-11-23T08:07:58;96081.47;;;2.24;100.00
55914;BME280;58179;48.776;9.124;2022-11-23T08:10:25;96071.56;;;2.26;100.00
55914;BME280;58179;48.776;9.124;2022-11-23T08:12:52;96081.09;;;2.32;100.00
55914;BME280;58179;48.776;9.124;2022-11-23T08:15:18;96080.19;;;2.38;100.00
55914;BME280;58179;48.776;9.124;2022-11-23T08:17:44;96082.44;;;2.46;100.00
55914;BME280;58179;48.776;9.124;2022-11-23T08:20:11;96081.50;;;2.52;100.00
55914;BME280;58179;48.776;9.124;2022-11-23T08:22:37;96083.03;;;2.65;100.00
55914;BME280;58179;48.776;9.124;2022-11-23T08:25:04;96081.22;;;2.65;100.00
55914;BME280;58179;48.776;9.124;2022-11-23T08:27:30;96080.16;;;2.78;100.00
55914;BME280;58179;48.776;9.124;2022-11-23T08:29:57;96082.28;;;2.81;100.00
55914;BME280;58179;48.776;9.124;2022-11-23T08:32:23;96082.16;;;2.88;100.00
55914;BME280;58179;48.776;9.124;2022-11-23T08:34:49;96079.66;;;2.93;100.00
55914;BME280;58179;48.776;9.124;2022-11-23T08:37:15;96079.25;;;3.01;100.00
55914;BME280;58179;48.776;9.124;2022-11-23T08:39:41;96080.88;;;3.19;100.00
55914;BME280;58179;48.776;9.124;2022-11-23T08:42:06;96071.28;;;3.24;100.00
55914;BME280;58179;48.776;9.124;2022-11-23T08:44:32;96078.91;;;3.42;100.00
55914;BME280;58179;48.776;9.124;2022-11-23T08:47:00;96074.75;;;3.46;100.00
55914;BME280;58179;48.776;9.124;2022-11-23T08:49:26;96077.31;;;3.41;100.00
55914;BME280;58179;48.776;9.124;2022-11-23T08:51:52;96076.59;;;3.46;100.00
55914;BME280;58179;48.776;9.124;2022-11-23T08:54:19;96076.84;;;3.44;100.00
55914;BME280;58179;48.776;9.124;2022-11-23T08:56:45;96084.59;;;3.56;100.00
55914;BME280;58179;48.776;9.124;2022-11-23T08:59:11;96081.53;;;3.76;100.00
55914;BME280;58179;48.776;9.124;2022-11-23T09:01:37;96082.53;;;3.75;100.00
55914;BME280;58179;48.776;9.124;2022-11-23T09:04:04;96082.91;;;3.83;100.00
55914;BME280;58179;48.776;9.124;2022-11-23T09:06:32;96085.38;;;3.90;100.00
55914;BME280;58179;48.776;9.124;2022-11-23T09:08:58;96089.09;;;3.94;100.00
55914;BME280;58179;48.776;9.124;2022-11-23T09:11:24;96091.25;;;3.97;100.00
55914;BME280;58179;48.776;9.124;2022-11-23T09:13:54;96083.41;;;4.19;100.00
55914;BME280;58179;48.776;9.124;2022-11-23T09:16:19;96088.28;;;4.32;100.00
55914;BME280;58179;48.776;9.124;2022-11-23T09:18:46;96084.09;;;4.53;100.00
55914;BME280;58179;48.776;9.124;2022-11-23T09:21:15;96077.22;;;4.95;100.00
55914;BME280;58179;48.776;9.124;2022-11-23T09:23:42;96086.94;;;5.54;100.00
55914;BME280;58179;48.776;9.124;2022-11-23T09:26:08;96075.03;;;6.20;100.00
55914;BME280;58179;48.776;9.124;2022-11-23T09:28:41;96080.38;;;6.40;100.00
55914;BME280;58179;48.776;9.124;2022-11-23T09:31:07;96076.09;;;6.81;100.00
55914;BME280;58179;48.776;9.124;2022-11-23T09:33:33;96076.94;;;7.22;100.00
55914;BME280;58179;48.776;9.124;2022-11-23T09:36:01;96076.16;;;7.17;100.00
55914;BME280;58179;48.776;9.124;2022-11-23T09:38:29;96075.91;;;7.54;100.00
55914;BME280;58179;48.776;9.124;2022-11-23T09:41:05;96083.56;;;7.60;100.00
55914;BME280;58179;48.776;9.124;2022-11-23T09:43:47;96083.53;;;8.11;100.00
55914;BME280;58179;48.776;9.124;2022-11-23T09:46:24;96079.25;;;8.35;100.00
55914;BME280;58179;48.776;9.124;2022-11-23T09:49:11;96083.53;;;8.90;100.00
55914;BME280;58179;48.776;9.124;2022-11-23T09:51:39;96078.81;;;9.31;100.00
55914;BME280;58179;48.776;9.124;2022-11-23T09:54:21;96071.13;;;9.69;100.00
55914;BME280;58179;48.776;9.124;2022-11-23T09:56:49;96068.06;;;10.15;100.00
55914;BME280;58179;48.776;9.124;2022-11-23T09:59:25;96061.03;;;10.53;100.00
55914;BME280;58179;48.776;9.124;2022-11-23T10:01:56;96060.84;;;11.10;100.00
55914;BME280;58179;48.776;9.124;2022-11-23T10:04:23;96057.25;;;11.57;100.00
55914;BME280;58179;48.776;9.124;2022-11-23T10:06:53;96064.78;;;12.29;100.00
55914;BME280;58179;48.776;9.124;2022-11-23T10:09:34;96058.56;;;12.88;100.00
55914;BME280;58179;48.776;9.124;2022-11-23T10:12:25;96050.91;;;13.36;93.17
55914;BME280;58179;48.776;9.124;2022-11-23T10:15:10;96045.75;;;13.84;100.00
55914;BME280;58179;48.776;9.124;2022-11-23T10:18:04;96045.97;;;14.27;84.86
55914;BME280;58179;48.776;9.124;2022-11-23T10:20:58;96049.38;;;14.50;73.38
55914;BME280;58179;48.776;9.124;2022-11-23T10:23:51;96040.53;;;14.72;69.27
55914;BME280;58179;48.776;9.124;2022-11-23T10:26:27;96044.47;;;14.92;72.46
55914;BME280;58179;48.776;9.124;2022-11-23T10:28:54;96041.22;;;15.38;73.30
55914;BME280;58179;48.776;9.124;2022-11-23T10:31:23;96045.28;;;15.53;70.06
55914;BME280;58179;48.776;9.124;2022-11-23T10:33:57;96039.69;;;16.18;73.62
55914;BME280;58179;48.776;9.124;2022-11-23T10:36:26;96041.81;;;16.42;73.93
55914;BME280;58179;48.776;9.124;2022-11-23T10:41:31;96047.09;;;16.59;74.13
55914;BME280;58179;48.776;9.124;2022-11-23T10:44:30;96046.75;;;16.31;78.45
55914;BME280;58179;48.776;9.124;2022-11-23T10:46:57;96043.72;;;16.33;69.88
55914;BME280;58179;48.776;9.124;2022-11-23T10:49:28;96046.09;;;16.34;72.56
55914;BME280;58179;48.776;9.124;2022-11-23T10:52:00;96038.69;;;15.93;64.72
55914;BME280;58179;48.776;9.124;2022-11-23T10:54:33;96042.16;;;15.85;69.86
55914;BME280;58179;48.776;9.124;2022-11-23T10:57:20;96033.38;;;15.59;76.32
55914;BME280;58179;48.776;9.124;2022-11-23T10:59:57;96035.56;;;15.31;64.34
55914;BME280;58179;48.776;9.124;2022-11-23T11:02:24;96031.16;;;15.35;70.14
55914;BME280;58179;48.776;9.124;2022-11-23T11:04:51;96023.63;;;14.94;58.57
55914;BME280;58179;48.776;9.124;2022-11-23T11:07:37;96014.84;;;14.93;66.88
55914;BME280;58179;48.776;9.124;2022-11-23T11:10:05;96027.84;;;14.86;68.27
55914;BME280;58179;48.776;9.124;2022-11-23T11:15:17;96012.19;;;15.36;71.41
55914;BME280;58179;48.776;9.124;2022-11-23T11:20:32;96013.59;;;14.91;58.76
55914;BME280;58179;48.776;9.124;2022-11-23T11:35:59;96018.78;;;14.87;68.25
55914;BME280;58179;48.776;9.124;2022-11-23T11:38:29;96012.69;;;14.39;69.86
55914;BME280;58179;48.776;9.124;2022-11-23T11:41:01;96009.38;;;14.02;77.49
55914;BME280;58179;48.776;9.124;2022-11-23T11:43:33;96009.16;;;13.59;84.88
55914;BME280;58179;48.776;9.124;2022-11-23T11:46:09;95994.59;;;13.34;91.51
55914;BME280;58179;48.776;9.124;2022-11-23T11:48:40;95994.06;;;13.10;94.54
55914;BME280;58179;48.776;9.124;2022-11-23T11:51:11;95992.47;;;12.87;92.55
55914;BME280;58179;48.776;9.124;2022-11-23T11:53:54;95994.78;;;12.52;89.30
55914;BME280;58179;48.776;9.124;2022-11-23T11:56:28;95995.69;;;12.20;90.41
55914;BME280;58179;48.776;9.124;2022-11-23T11:58:59;95995.41;;;11.94;100.00
55914;BME280;58179;48.776;9.124;2022-11-23T12:01:34;95988.69;;;11.51;88.67
55914;BME280;58179;48.776;9.124;2022-11-23T12:04:05;95988.84;;;11.08;90.21
55914;BME280;58179;48.776;9.124;2022-11-23T12:06:39;95985.13;;;10.72;92.47
55914;BME280;58179;48.776;9.124;2022-11-23T12:09:14;95986.28;;;10.66;100.00
55914;BME280;58179;48.776;9.124;2022-11-23T12:11:43;95983.56;;;10.52;100.00
55914;BME280;58179;48.776;9.124;2022-11-23T12:14:12;95973.72;;;10.34;94.60
55914;BME280;58179;48.776;9.124;2022-11-23T12:16:48;95963.59;;;10.17;100.00
55914;BME280;58179;48.776;9.124;2022-11-23T12:19:19;95966.13;;;10.03;100.00
55914;BME280;58179;48.776;9.124;2022-11-23T12:22:16;95970.88;;;10.01;98.29
55914;BME280;58179;48.776;9.124;2022-11-23T12:25:03;95965.09;;;10.23;100.00
55914;BME280;58179;48.776;9.124;2022-11-23T12:27:43;95973.28;;;10.45;100.00
55914;BME280;58179;48.776;9.124;2022-11-23T12:30:25;95979.97;;;10.62;82.25
55914;BME280;58179;48.776;9.124;2022-11-23T12:36:36;95960.81;;;11.21;92.58
55914;BME280;58179;48.776;9.124;2022-11-23T12:39:22;95968.81;;;11.02;99.31
55914;BME280;58179;48.776;9.124;2022-11-23T12:41:55;95963.59;;;11.30;100.00
55914;BME280;58179;48.776;9.124;2022-11-23T12:44:56;95960.50;;;11.41;93.53
55914;BME280;58179;48.776;9.124;2022-11-23T12:47:39;95959.81;;;11.82;92.42
55914;BME280;58179;48.776;9.124;2022-11-23T12:50:20;95958.22;;;12.49;93.42
55914;BME280;58179;48.776;9.124;2022-11-23T12:53:04;95961.91;;;12.75;80.55
55914;BME280;58179;48.776;9.124;2022-11-23T12:55:45;95956.31;;;12.77;74.59
55914;BME280;58179;48.776;9.124;2022-11-23T12:58:20;95955.97;;;12.78;73.70
55914;BME280;58179;48.776;9.124;2022-11-23T13:00:52;95950.03;;;12.95;82.77
55914;BME280;58179;48.776;9.124;2022-11-23T13:04:07;95958.59;;;13.28;78.48
55914;BME280;58179;48.776;9.124;2022-11-23T13:10:34;95952.84;;;12.27;69.98
55914;BME280;58179;48.776;9.124;2022-11-23T13:13:28;95948.03;;;11.88;71.78
55914;BME280;58179;48.776;9.124;2022-11-23T13:19:16;95938.25;;;11.56;86.15
55914;BME280;58179;48.776;9.124;2022-11-23T13:21:45;95944.00;;;11.31;86.47
55914;BME280;58179;48.776;9.124;2022-11-23T13:24:26;95938.03;;;11.06;85.34
55914;BME280;58179;48.776;9.124;2022-11-23T13:27:53;95933.28;;;10.71;82.61
55914;BME280;58179;48.776;9.124;2022-11-23T13:30:33;95935.41;;;10.69;92.78
55914;BME280;58179;48.776;9.124;2022-11-23T13:35:54;95920.19;;;9.99;98.76
55914;BME280;58179;48.776;9.124;2022-11-23T13:38:42;95927.34;;;9.46;91.12
55914;BME280;58179;48.776;9.124;2022-11-23T13:44:20;95922.66;;;8.75;92.96
55914;BME280;58179;48.776;9.124;2022-11-23T13:47:00;95915.94;;;8.54;100.00
55914;BME280;58179;48.776;9.124;2022-11-23T13:49:36;95907.38;;;8.33;100.00
55914;BME280;58179;48.776;9.124;2022-11-23T13:52:27;95905.84;;;8.12;97.29
55914;BME280;58179;48.776;9.124;2022-11-23T13:55:16;95898.56;;;7.99;100.00